Anch, Alaska
Current Conditions -  °F | °C
As of 10:58 AM on Thursday 23 Oct 2014 (Local Time) from PAED Reporting Station
Clear Clear  
Wind Chill: 28°   Ceiling: Unl
Heat Index: 28°   Visibility: 10mi
Dew Point: 21°   Wind: 0mph
Humidity: 76%   Direction: NA
Pressure: 29.68"   Gusts: NA
Location:  61.2265°N, 149.62°W
Report Text: PAED 231858Z AUTO 00000KT 10SM CLR M02/M06 A2968 RMK AO2 SLP048 T10251062 $
Loading
Personal Weather Stations






























Interactive Weather Map
Tropical Storm Tracking
New forecast layout! Learn more

10-Day Weather Forecast

Advertisements
Track Severe Weather on mobile